Time;durP1;ratioP1;P1;durP2;ratioP2;P2;SDS_P1;SDS_P2;PMS_P1;PMS_P2;Temp;Humidity;BMP_temperature;BMP_pressure;BME280_temperature;BME280_humidity;BME280_pressure;Samples;Min_cycle;Max_cycle;Signal;HPM_P1;HPM_P2
2023/01/16 07:34:24;;;;;;;2.50;1.60;;;5.60;99.90;7.40;97731.00;;;;5063170;28;20315;-65
2023/01/16 07:36:49;;;;;;;1.30;1.30;;;5.60;99.90;7.00;97721.00;;;;5052481;28;20201;-65
2023/01/16 07:39:15;;;;;;;1.40;1.40;;;5.60;99.90;7.00;97731.00;;;;5057883;28;20546;-65
2023/01/16 07:41:41;;;;;;;1.60;1.60;;;5.60;99.90;7.00;97710.00;;;;5077900;28;20191;-65
2023/01/16 07:44:07;;;;;;;1.50;1.50;;;5.50;99.90;7.20;97703.00;;;;5083278;28;20195;-65
2023/01/16 07:46:33;;;;;;;1.53;1.53;;;5.60;99.90;6.90;97697.00;;;;5070778;28;20209;-65
2023/01/16 07:48:59;;;;;;;1.90;1.77;;;5.60;99.90;6.80;97699.00;;;;5081545;28;20197;-65
2023/01/16 07:51:26;;;;;;;1.40;1.40;;;5.50;99.90;7.20;97697.00;;;;5085987;28;20196;-65
2023/01/16 07:53:52;;;;;;;2.03;1.93;;;5.60;99.90;8.00;97685.00;;;;5072078;28;20638;-65
2023/01/16 07:56:17;;;;;;;1.50;1.50;;;5.80;99.90;7.40;97702.00;;;;5067273;28;20254;-65
2023/01/16 07:58:43;;;;;;;1.90;1.80;;;5.80;99.90;7.40;97699.00;;;;5084157;28;20198;-65
2023/01/16 08:01:12;;;;;;;1.93;1.93;;;5.80;99.90;7.70;97694.00;;;;5072461;28;20204;-65
2023/01/16 08:03:38;;;;;;;2.20;2.10;;;5.90;99.90;7.90;97695.00;;;;5089293;28;20657;-65
2023/01/16 08:06:04;;;;;;;1.83;1.83;;;5.90;99.90;7.70;97673.00;;;;5072143;28;20203;-65
2023/01/16 08:08:32;;;;;;;2.50;2.40;;;5.90;99.90;7.70;97683.00;;;;5090128;28;20282;-66
2023/01/16 08:11:35;;;;;;;1.83;1.83;;;5.90;99.90;8.00;97680.00;;;;5068993;28;20285;-66
2023/01/16 08:13:46;;;;;;;2.30;2.20;;;6.00;99.90;7.50;97671.00;;;;5071781;28;20199;-66
2023/01/16 08:16:12;;;;;;;1.90;1.90;;;5.80;99.90;7.40;97667.00;;;;5068534;28;20682;-66
2023/01/16 08:18:37;;;;;;;1.70;1.70;;;5.80;99.90;7.70;97650.00;;;;5075407;28;20210;-66
2023/01/16 08:21:03;;;;;;;1.80;1.80;;;5.90;99.90;7.50;97653.00;;;;5093813;28;20231;-66
2023/01/16 08:23:29;;;;;;;1.73;1.73;;;5.80;99.90;7.60;97614.00;;;;5092412;28;20203;-66
2023/01/16 08:25:55;;;;;;;2.30;2.10;;;5.90;99.90;7.40;97599.00;;;;5058076;28;20282;-67
2023/01/16 08:28:21;;;;;;;2.17;2.07;;;5.90;99.90;7.50;97645.00;;;;5093473;28;20686;-66
2023/01/16 08:30:47;;;;;;;2.13;2.03;;;5.90;99.90;8.00;97637.00;;;;5070596;28;20278;-66
2023/01/16 08:33:13;;;;;;;2.00;2.00;;;5.90;99.90;7.40;97639.00;;;;5098312;28;20212;-66
2023/01/16 08:35:38;;;;;;;2.30;2.20;;;5.90;99.90;8.20;97589.00;;;;5075004;28;20254;-66
2023/01/16 08:38:04;;;;;;;2.10;2.10;;;6.10;99.90;8.10;97635.00;;;;5037087;28;20189;-66
2023/01/16 08:40:30;;;;;;;2.00;2.00;;;6.20;99.90;8.10;97625.00;;;;5053358;28;20196;-66
2023/01/16 08:51:21;;;;;;;2.20;2.20;;;6.20;99.90;8.30;97619.00;;;;5057557;28;20197;-66
2023/01/16 08:53:50;;;;;;;2.40;2.30;;;6.30;99.90;8.30;97623.00;;;;5053358;28;20183;-67
2023/01/16 08:56:16;;;;;;;2.53;2.43;;;6.30;99.90;8.40;97619.00;;;;5054001;28;20205;-66
2023/01/16 08:58:42;;;;;;;2.30;2.20;;;6.40;99.90;8.00;97562.00;;;;5063425;28;20670;-66
2023/01/16 09:01:08;;;;;;;1.80;1.80;;;6.40;99.90;8.00;97599.00;;;;5053216;28;20191;-66
2023/01/16 09:03:34;;;;;;;1.83;1.83;;;6.40;99.90;8.10;97605.00;;;;5045045;28;20220;-66
2023/01/16 09:06:01;;;;;;;2.00;2.00;;;6.40;99.90;8.50;97599.00;;;;5054575;28;20190;-65
2023/01/16 09:08:27;;;;;;;1.97;1.97;;;6.60;99.90;8.40;97595.00;;;;5053781;28;20246;-66
2023/01/16 09:13:50;;;;;;;9.70;3.50;;;6.50;99.90;8.40;97599.00;;;;5070163;28;20259;-66
2023/01/16 09:16:23;;;;;;;1.70;1.70;;;6.50;99.90;8.60;97596.00;;;;5042886;28;20233;-66
2023/01/16 09:18:49;;;;;;;2.00;2.00;;;6.60;99.90;9.00;97612.00;;;;5053719;28;20217;-66
2023/01/16 09:21:16;;;;;;;2.03;2.03;;;6.80;99.90;8.40;97596.00;;;;5045500;28;20238;-66
2023/01/16 09:23:43;;;;;;;1.80;1.80;;;6.70;99.90;8.80;97554.00;;;;5072140;28;20652;-65
2023/01/16 09:26:09;;;;;;;2.67;2.57;;;6.80;99.90;8.30;97591.00;;;;5060768;28;20192;-66
2023/01/16 09:28:35;;;;;;;1.80;1.80;;;6.70;99.90;9.30;97608.00;;;;5063533;28;20193;-66
2023/01/16 09:31:01;;;;;;;1.80;1.70;;;6.90;99.90;8.30;97592.00;;;;5064623;28;20184;-66
2023/01/16 09:33:27;;;;;;;1.60;1.60;;;6.70;99.90;8.60;97594.00;;;;5049918;28;20229;-66
2023/01/16 09:35:52;;;;;;;1.53;1.53;;;6.70;99.90;8.60;97599.00;;;;5050287;28;20715;-66
2023/01/16 09:38:21;;;;;;;1.40;1.40;;;6.70;99.90;8.20;97593.00;;;;5074621;28;20210;-66
2023/01/16 09:40:51;;;;;;;1.80;1.70;;;6.70;99.90;8.10;97590.00;;;;5089829;28;20194;-66
2023/01/16 09:43:40;;;;;;;1.70;1.60;;;6.50;99.90;8.40;97591.00;;;;5084362;28;20661;-66
2023/01/16 09:46:28;;;;;;;2.10;2.00;;;6.60;99.90;8.60;97546.00;;;;5069263;28;20199;-66
2023/01/16 09:48:58;;;;;;;1.47;1.47;;;6.60;99.90;8.50;97590.00;;;;5071594;28;20712;-66
2023/01/16 09:51:40;;;;;;;1.50;1.50;;;6.70;99.90;8.90;97587.00;;;;5069935;28;20270;-66
2023/01/16 10:00:04;;;;;;;1.47;1.47;;;6.50;99.90;7.80;97581.00;;;;5076348;28;20203;-66
2023/01/16 10:02:34;;;;;;;1.50;1.50;;;6.40;99.90;7.70;97521.00;;;;5075168;28;20669;-66
2023/01/16 10:05:03;;;;;;;1.30;1.30;;;6.20;99.90;8.10;97524.00;;;;5083828;28;20194;-66
2023/01/16 10:07:39;;;;;;;1.53;1.53;;;6.30;99.90;8.40;97572.00;;;;5072132;28;20191;-66
2023/01/16 10:10:49;;;;;;;1.50;1.50;;;6.40;99.90;8.00;97565.00;;;;5074352;28;20220;-66
2023/01/16 10:13:29;;;;;;;1.60;1.60;;;6.30;99.90;8.30;97569.00;;;;5089058;28;20235;-66
2023/01/16 10:16:04;;;;;;;1.77;1.77;;;6.30;99.90;8.90;97522.00;;;;5091605;28;20210;-66
2023/01/16 10:18:50;;;;;;;1.80;1.80;;;6.50;99.90;8.70;97550.00;;;;5091008;28;20208;-66
2023/01/16 10:33:46;;;;;;;1.00;1.00;;;5.70;99.90;7.80;97553.00;;;;5070235;28;20611;-65
2023/01/16 10:36:18;;;;;;;1.10;1.10;;;6.00;99.90;8.10;97515.00;;;;5065559;28;20196;-66
2023/01/16 10:38:51;;;;;;;1.20;1.20;;;6.20;99.90;8.50;97483.00;;;;5064724;28;20277;-66
2023/01/16 10:50:13;;;;;;;1.50;1.50;;;6.60;99.90;9.00;97505.00;;;;5056986;28;20192;-66
2023/01/16 10:52:42;;;;;;;1.50;1.50;;;6.70;99.90;9.30;97513.00;;;;5048470;28;20205;-66
2023/01/16 10:55:10;;;;;;;1.90;1.80;;;6.80;99.90;9.10;97465.00;;;;5047611;28;20242;-65
2023/01/16 10:57:58;;;;;;;2.00;2.00;;;6.90;99.90;8.60;97499.00;;;;5053675;28;20190;-66
2023/01/16 11:00:32;;;;;;;2.20;2.20;;;6.90;99.90;9.10;97495.00;;;;5048481;28;20214;-65
2023/01/16 11:03:25;;;;;;;3.73;3.53;;;6.80;99.90;9.30;97461.00;;;;5058533;28;20190;-68
2023/01/16 11:06:06;;;;;;;2.03;2.03;;;7.00;99.90;8.30;97502.00;;;;5049429;28;20194;-65
2023/01/16 11:08:34;;;;;;;12.77;4.00;;;6.80;99.90;8.00;97495.00;;;;5047334;28;20654;-66
2023/01/16 11:11:01;;;;;;;1.87;1.87;;;6.60;99.90;8.10;97492.00;;;;5045719;28;20679;-65
2023/01/16 11:19:44;;;;;;;1.53;1.53;;;6.40;99.90;8.50;97479.00;;;;5045064;28;20188;-66
2023/01/16 11:22:25;;;;;;;1.80;1.80;;;6.40;99.90;8.20;97476.00;;;;5058056;28;20204;-66
2023/01/16 11:25:01;;;;;;;1.60;1.60;;;6.60;99.90;8.00;97472.00;;;;5064816;28;20182;-66
2023/01/16 11:27:37;;;;;;;1.60;1.60;;;6.50;99.90;7.90;97459.00;;;;5064006;28;20185;-67
2023/01/16 11:30:24;;;;;;;2.07;1.97;;;6.50;99.90;7.80;97468.00;;;;5064242;28;20201;-66
2023/01/16 11:32:55;;;;;;;1.50;1.50;;;6.40;99.90;8.20;97449.00;;;;5062404;28;20251;-67
2023/01/16 11:35:25;;;;;;;1.77;1.73;;;6.30;99.90;7.60;97452.00;;;;5064622;28;20188;-67
2023/01/16 11:38:14;;;;;;;1.40;1.40;;;6.30;99.90;7.90;97438.00;;;;5064666;28;20192;-67
2023/01/16 11:40:50;;;;;;;1.40;1.40;;;6.20;99.90;8.20;97428.00;;;;5063538;28;20182;-67
2023/01/16 11:46:27;;;;;;;1.50;1.50;;;6.50;99.90;8.30;97442.00;;;;5034494;28;20568;-68
2023/01/16 11:49:15;;;;;;;1.70;1.70;;;6.60;99.90;8.70;97427.00;;;;5048326;28;20195;-67
2023/01/16 11:51:54;;;;;;;1.70;1.70;;;6.70;99.90;9.10;97415.00;;;;5049037;28;20289;-67
2023/01/16 11:54:28;;;;;;;1.60;1.60;;;6.90;99.90;9.00;97423.00;;;;5058662;28;20215;-68
2023/01/16 11:57:25;;;;;;;1.77;1.77;;;7.00;99.90;8.70;97414.00;;;;5033432;28;20190;-67
2023/01/16 12:00:23;;;;;;;1.50;1.50;;;7.10;99.90;9.20;97414.00;;;;5042434;28;20186;-68
2023/01/16 12:03:23;;;;;;;1.50;1.50;;;7.20;99.90;9.10;97412.00;;;;5020965;28;20213;-67
2023/01/16 12:06:14;;;;;;;1.63;1.63;;;7.30;99.90;9.00;97409.00;;;;5034507;28;20191;-68
2023/01/16 12:09:16;;;;;;;1.50;1.50;;;7.30;99.90;8.60;97346.00;;;;5048854;28;20189;-67
2023/01/16 12:15:13;;;;;;;1.50;1.40;;;7.40;99.90;8.50;97402.00;;;;5040557;28;20665;-67
2023/01/16 12:18:12;;;;;;;1.20;1.20;;;7.20;99.90;9.40;97411.00;;;;5056000;28;20274;-67
2023/01/16 12:20:59;;;;;;;1.30;1.30;;;7.20;99.90;8.90;97398.00;;;;5049369;28;20543;-67
2023/01/16 12:23:46;;;;;;;1.53;1.53;;;7.30;99.90;9.20;97395.00;;;;5049193;28;20186;-67
2023/01/16 12:26:20;;;;;;;1.20;1.20;;;7.30;99.90;8.80;97396.00;;;;5050161;28;20183;-67
2023/01/16 12:29:10;;;;;;;1.23;1.23;;;7.30;99.90;8.90;97398.00;;;;5033873;28;20190;-67
2023/01/16 12:32:05;;;;;;;1.10;1.10;;;7.30;99.90;10.10;97390.00;;;;5033270;28;20226;-67
2023/01/16 12:34:44;;;;;;;1.50;1.50;;;7.50;99.90;9.60;97399.00;;;;5050220;28;20239;-67
2023/01/16 12:37:56;;;;;;;1.50;1.50;;;7.70;99.90;9.90;97398.00;;;;5040530;28;20240;-66
2023/01/16 12:40:39;;;;;;;1.40;1.40;;;7.70;99.90;9.30;97392.00;;;;5030800;28;20187;-68
2023/01/16 12:43:23;;;;;;;1.00;1.00;;;7.60;99.90;8.50;97371.00;;;;5032013;28;20444;-67
2023/01/16 12:45:59;;;;;;;0.93;0.93;;;7.30;99.90;9.20;97365.00;;;;5028745;28;20198;-67
2023/01/16 12:48:50;;;;;;;1.10;1.10;;;7.40;99.90;9.80;97374.00;;;;5032468;28;20179;-67
2023/01/16 12:51:50;;;;;;;1.00;1.00;;;7.60;99.90;9.80;97367.00;;;;5030787;28;20183;-67
2023/01/16 12:54:41;;;;;;;1.10;1.10;;;7.60;99.90;9.60;97336.00;;;;5048435;28;20262;-67
2023/01/16 12:57:44;;;;;;;0.90;0.90;;;7.70;99.90;9.70;97363.00;;;;5028644;28;20190;-68
2023/01/16 13:00:22;;;;;;;1.30;1.30;;;7.50;99.90;9.50;97318.00;;;;5030980;28;20281;-68
2023/01/16 13:03:09;;;;;;;1.10;1.10;;;7.60;99.90;9.60;97366.00;;;;5035390;28;20654;-67
2023/01/16 13:05:39;;;;;;;0.90;0.90;;;7.60;99.90;8.70;97357.00;;;;5033888;28;20564;-67
2023/01/16 13:08:45;;;;;;;1.10;1.10;;;7.30;99.90;10.10;97370.00;;;;5048511;28;20222;-68
2023/01/16 13:14:11;;;;;;;1.13;1.13;;;7.80;99.90;9.80;97355.00;;;;5044522;28;20673;-67
2023/01/16 13:16:54;;;;;;;1.20;1.20;;;7.70;99.90;10.30;97359.00;;;;5049489;28;20217;-67
2023/01/16 13:19:34;;;;;;;1.30;1.30;;;7.70;99.90;10.00;97316.00;;;;5029466;28;20701;-67
2023/01/16 13:22:25;;;;;;;1.40;1.40;;;7.80;99.90;10.10;97358.00;;;;5015923;28;20207;-67
2023/01/16 13:25:38;;;;;;;1.10;1.10;;;7.80;99.90;10.10;97350.00;;;;5032567;28;20241;-67
2023/01/16 13:28:16;;;;;;;0.90;0.90;;;7.80;99.90;9.30;97304.00;;;;5011461;28;20187;-67
2023/01/16 13:30:48;;;;;;;0.70;0.70;;;7.70;99.90;8.80;97344.00;;;;5032769;28;20277;-67
2023/01/16 13:33:19;;;;;;;0.90;0.90;;;7.40;99.90;9.60;97340.00;;;;5048954;28;20553;-67
2023/01/16 13:36:12;;;;;;;1.00;1.00;;;7.50;99.90;10.20;97358.00;;;;5034053;28;20186;-67
2023/01/16 13:39:17;;;;;;;1.10;1.10;;;7.70;99.90;10.70;97360.00;;;;5022967;28;20203;-67
2023/01/16 13:41:49;;;;;;;1.10;1.10;;;8.00;99.90;10.50;97352.00;;;;5027562;28;20543;-67
2023/01/16 13:47:22;;;;;;;1.00;1.00;;;7.90;99.90;10.40;97354.00;;;;5046435;28;20193;-68
2023/01/16 13:50:40;;;;;;;1.10;1.10;;;7.90;99.90;9.50;97357.00;;;;5050496;28;20642;-68
2023/01/16 13:53:24;;;;;;;1.10;1.10;;;7.70;99.90;10.50;97344.00;;;;5023456;28;20215;-68
2023/01/16 13:56:30;;;;;;;1.10;1.10;;;7.80;99.90;10.10;97361.00;;;;5039247;28;20186;-68
2023/01/16 13:59:05;;;;;;;1.10;1.10;;;7.80;99.90;10.10;97354.00;;;;5039917;28;20529;-68
2023/01/16 14:01:53;;;;;;;1.33;1.33;;;7.70;99.90;11.20;97352.00;;;;5043597;28;20214;-68
2023/01/16 14:04:21;;;;;;;1.40;1.40;;;8.10;99.90;10.40;97359.00;;;;5051177;28;20261;-68
2023/01/16 14:10:07;;;;;;;1.40;1.40;;;7.90;99.90;10.00;97342.00;;;;5035391;28;20282;-74
2023/01/16 14:13:02;;;;;;;1.10;1.10;;;7.80;99.90;9.90;97351.00;;;;5030073;28;20291;-67
2023/01/16 14:19:14;;;;;;;1.20;1.20;;;7.70;99.90;10.00;97344.00;;;;5042370;28;20549;-68
2023/01/16 14:25:18;;;;;;;1.40;1.40;;;7.50;99.90;10.70;97313.00;;;;5033614;28;20277;-68
2023/01/16 14:28:22;;;;;;;1.60;1.60;;;7.90;99.90;11.10;97318.00;;;;5047860;28;20179;-68
2023/01/16 14:31:01;;;;;;;1.80;1.80;;;8.10;99.90;11.40;97370.00;;;;5031041;28;20195;-68
2023/01/16 14:33:40;;;;;;;1.90;1.90;;;8.30;99.90;11.10;97372.00;;;;5048117;28;20214;-68
2023/01/16 14:36:29;;;;;;;1.93;1.93;;;8.20;99.90;11.90;97384.00;;;;5047378;28;20185;-68
2023/01/16 14:38:56;;;;;;;2.00;2.00;;;8.40;99.90;11.80;97357.00;;;;5048284;28;20252;-68
2023/01/16 14:57:55;;;;;;;1.00;1.00;;;6.70;99.90;9.60;97386.00;;;;5010398;28;20248;-68
2023/01/16 15:00:25;;;;;;;1.30;1.30;;;7.00;99.90;9.90;97370.00;;;;5030743;28;20201;-68
2023/01/16 15:04:08;;;;;;;1.90;1.90;;;7.30;99.90;10.20;97417.00;;;;5047754;28;20186;-68
2023/01/16 15:07:13;;;;;;;2.07;2.07;;;7.50;99.90;10.60;97440.00;;;;4996194;28;20201;-68
2023/01/16 15:10:28;;;;;;;2.30;2.30;;;7.70;99.90;10.80;97437.00;;;;4978268;28;20293;-68
2023/01/16 15:14:25;;;;;;;2.63;2.53;;;7.70;99.90;10.60;97447.00;;;;4993488;28;20227;-68
2023/01/16 15:23:23;;;;;;;2.20;2.20;;;7.40;99.90;10.10;97414.00;;;;5014460;28;20821;-67
2023/01/16 15:26:12;;;;;;;2.60;2.50;;;7.40;99.90;9.80;97468.00;;;;5013781;28;20193;-68
2023/01/16 15:29:00;;;;;;;2.60;2.50;;;7.40;99.90;9.60;97464.00;;;;5014377;28;20583;-67
2023/01/16 15:32:17;;;;;;;2.63;2.43;;;7.20;99.90;9.40;97473.00;;;;5025258;28;20212;-67
2023/01/16 15:35:15;;;;;;;2.10;2.10;;;7.10;99.90;9.80;97477.00;;;;5032952;28;20181;-67
2023/01/16 15:38:11;;;;;;;2.30;2.30;;;7.10;99.90;9.70;97490.00;;;;5033743;28;20519;-67
2023/01/16 15:40:56;;;;;;;2.40;2.30;;;7.10;99.90;9.30;97495.00;;;;5029266;28;20212;-67
2023/01/16 15:46:47;;;;;;;2.00;2.00;;;7.00;99.90;9.50;97519.00;;;;5043016;28;20235;-67
2023/01/16 15:50:12;;;;;;;2.00;2.00;;;7.00;99.90;9.40;97516.00;;;;5034615;28;20215;-67
2023/01/16 15:52:59;;;;;;;1.90;1.90;;;6.90;99.90;9.00;97525.00;;;;5013521;28;20215;-67
2023/01/16 15:55:50;;;;;;;1.80;1.80;;;6.90;99.90;8.40;97545.00;;;;5026035;28;20207;-67
2023/01/16 15:58:36;;;;;;;1.50;1.50;;;6.70;99.90;8.50;97533.00;;;;5024289;28;20198;-67
2023/01/16 16:01:08;;;;;;;2.27;2.17;;;6.40;99.90;8.00;97567.00;;;;5033869;28;20221;-67
2023/01/16 16:03:47;;;;;;;1.80;1.80;;;6.30;99.90;8.20;97569.00;;;;5017918;28;20185;-67
2023/01/16 16:06:16;;;;;;;1.50;1.50;;;6.20;99.90;7.80;97583.00;;;;5051137;28;20318;-67
2023/01/16 16:09:06;;;;;;;1.80;1.80;;;6.10;99.90;8.10;97592.00;;;;5048129;28;20709;-66
2023/01/16 16:20:42;;;;;;;1.90;1.90;;;6.30;99.90;8.40;97611.00;;;;5048353;28;20249;-67
2023/01/16 16:23:19;;;;;;;1.80;1.80;;;6.30;99.90;7.90;97616.00;;;;5050387;28;20196;-67
2023/01/16 16:26:01;;;;;;;1.57;1.57;;;6.20;99.90;8.30;97612.00;;;;5050762;28;20211;-67
2023/01/16 16:28:33;;;;;;;1.60;1.60;;;6.20;99.90;7.90;97640.00;;;;5033105;28;20185;-67
2023/01/16 16:31:24;;;;;;;1.37;1.37;;;6.20;99.90;8.10;97634.00;;;;5032689;28;20663;-66
2023/01/16 16:34:14;;;;;;;1.83;1.73;;;6.20;99.90;8.10;97629.00;;;;5026641;28;20212;-66
2023/01/16 16:36:45;;;;;;;1.50;1.50;;;6.10;99.90;8.20;97647.00;;;;5050660;28;20710;-66
2023/01/16 16:39:44;;;;;;;1.57;1.57;;;6.20;99.90;8.20;97654.00;;;;5030517;28;20191;-67
2023/01/16 16:42:29;;;;;;;2.73;2.63;;;6.20;99.90;7.90;97607.00;;;;5030047;28;20191;-67
2023/01/16 16:45:33;;;;;;;1.90;1.80;;;6.20;99.90;8.00;97672.00;;;;5037676;28;20203;-67
2023/01/16 16:48:23;;;;;;;1.53;1.53;;;6.20;99.90;8.30;97679.00;;;;5017021;28;20221;-67
2023/01/16 16:51:17;;;;;;;1.40;1.40;;;6.30;99.90;8.70;97687.00;;;;5033652;28;20221;-67
2023/01/16 16:54:07;;;;;;;1.77;1.67;;;6.40;99.90;8.00;97652.00;;;;5049909;28;20190;-67
2023/01/16 16:56:49;;;;;;;1.73;1.73;;;6.20;99.90;8.40;97656.00;;;;5022030;28;20211;-67
2023/01/16 16:59:37;;;;;;;1.40;1.40;;;6.20;99.90;8.10;97701.00;;;;5047236;28;20191;-67
2023/01/16 17:02:08;;;;;;;1.67;1.63;;;6.20;99.90;8.00;97716.00;;;;5032489;28;20191;-68
2023/01/16 17:04:54;;;;;;;1.60;1.60;;;6.10;99.90;8.50;97726.00;;;;5049905;28;20242;-68
2023/01/16 17:07:21;;;;;;;1.70;1.70;;;6.30;99.90;8.30;97699.00;;;;5049276;28;20189;-68
2023/01/16 17:09:49;;;;;;;1.70;1.70;;;6.30;99.90;8.30;97708.00;;;;5031427;28;20183;-68
2023/01/16 17:12:20;;;;;;;3.00;2.90;;;6.30;99.90;9.00;97689.00;;;;5027151;28;20261;-68
2023/01/16 17:15:14;;;;;;;1.70;1.70;;;6.40;99.90;9.00;97756.00;;;;5047046;28;20225;-67
2023/01/16 17:17:56;;;;;;;2.10;2.07;;;6.50;99.90;8.80;97755.00;;;;5025826;28;20202;-67
2023/01/16 17:20:46;;;;;;;2.10;2.10;;;6.60;99.90;8.60;97755.00;;;;5032389;28;20213;-67
2023/01/16 17:23:15;;;;;;;1.80;1.80;;;6.60;99.90;8.50;97780.00;;;;5024848;28;20284;-67
2023/01/16 17:26:08;;;;;;;3.07;2.87;;;6.50;99.90;8.60;97771.00;;;;5049237;28;20208;-67
2023/01/16 17:29:20;;;;;;;1.90;1.90;;;6.50;99.90;8.90;97756.00;;;;5030853;28;20186;-67
2023/01/16 17:31:46;;;;;;;2.10;2.10;;;6.60;99.90;8.60;97796.00;;;;5041302;28;20229;-66
2023/01/16 17:34:16;;;;;;;2.40;2.30;;;6.50;99.90;8.30;97806.00;;;;5047909;28;20267;-66
2023/01/16 17:36:46;;;;;;;2.30;2.30;;;6.50;99.90;8.70;97823.00;;;;5016342;28;20640;-66
2023/01/16 17:39:12;;;;;;;2.37;2.37;;;6.50;99.90;8.60;97822.00;;;;5048366;28;20661;-66
2023/01/16 17:47:44;;;;;;;1.80;1.80;;;5.80;99.90;7.50;97830.00;;;;5043747;28;20250;-69
2023/01/16 17:50:48;;;;;;;1.83;1.83;;;5.80;99.90;8.00;97845.00;;;;5028128;28;20215;-67
2023/01/16 17:53:41;;;;;;;2.27;2.27;;;5.80;99.90;8.40;97858.00;;;;5052508;28;20206;-66
2023/01/16 17:56:30;;;;;;;2.13;2.13;;;6.00;99.90;8.20;97851.00;;;;5049684;28;20185;-67
2023/01/16 17:59:07;;;;;;;2.47;2.47;;;6.10;99.90;8.00;97850.00;;;;5043307;28;20195;-67
2023/01/16 18:01:40;;;;;;;2.17;2.17;;;5.90;99.90;8.10;97868.00;;;;5050014;28;20566;-67
2023/01/16 18:04:10;;;;;;;2.70;2.60;;;5.90;99.90;8.00;97818.00;;;;5048471;28;20191;-67
2023/01/16 18:06:56;;;;;;;2.43;2.43;;;5.90;99.90;7.80;97878.00;;;;5048668;28;20197;-67
2023/01/16 18:09:22;;;;;;;2.40;2.40;;;5.90;99.90;8.10;97888.00;;;;5015051;28;20183;-67
2023/01/16 18:17:23;;;;;;;2.40;2.40;;;6.20;99.90;8.60;97915.00;;;;5034880;28;20197;-68
2023/01/16 18:20:08;;;;;;;2.90;2.70;;;6.10;99.90;8.60;97924.00;;;;5048014;28;20180;-68
2023/01/16 18:22:35;;;;;;;2.80;2.70;;;6.20;99.90;8.20;97910.00;;;;5040253;28;20667;-67
2023/01/16 18:25:02;;;;;;;3.03;2.93;;;6.00;99.90;8.50;97928.00;;;;5048431;28;20192;-67
2023/01/16 18:27:28;;;;;;;2.97;2.87;;;6.10;99.90;8.80;97927.00;;;;5038578;28;20777;-68
2023/01/16 18:30:15;;;;;;;2.87;2.77;;;6.20;99.90;8.60;97921.00;;;;5048479;28;20543;-67
2023/01/16 18:32:52;;;;;;;3.07;2.87;;;6.10;99.90;8.20;97930.00;;;;5045825;28;20230;-67
2023/01/16 18:35:21;;;;;;;2.70;2.60;;;6.10;99.90;8.20;97919.00;;;;5047998;28;20191;-67
2023/01/16 19:03:41;;;;;;;2.90;2.80;;;6.40;99.90;8.80;97955.00;;;;5036224;28;20585;-68
2023/01/16 19:06:36;;;;;;;3.00;2.90;;;6.30;99.90;8.80;97972.00;;;;5025721;28;20180;-68
2023/01/16 19:09:20;;;;;;;2.80;2.70;;;6.30;99.90;9.30;97974.00;;;;5033127;28;20542;-68
2023/01/16 19:12:13;;;;;;;2.90;2.80;;;6.60;99.90;9.20;97972.00;;;;5051682;28;20200;-68
2023/01/16 19:14:44;;;;;;;2.83;2.73;;;6.60;99.90;8.30;97963.00;;;;5036454;28;20265;-68
2023/01/16 19:17:32;;;;;;;2.80;2.70;;;6.40;99.90;8.50;97952.00;;;;5051858;28;20239;-68
2023/01/16 19:20:21;;;;;;;2.93;2.83;;;6.30;99.90;8.80;97968.00;;;;5036239;28;20187;-68
2023/01/16 19:23:01;;;;;;;2.50;2.50;;;6.30;99.90;8.00;97968.00;;;;5051374;28;20232;-68
2023/01/16 19:25:30;;;;;;;3.20;3.10;;;6.10;99.90;8.60;97965.00;;;;5048162;28;20177;-68
2023/01/16 19:28:27;;;;;;;2.80;2.70;;;6.20;99.90;8.40;97983.00;;;;5052446;28;20208;-68
2023/01/16 19:31:12;;;;;;;3.27;3.17;;;6.40;99.90;8.30;97990.00;;;;4968820;28;20614;-68
2023/01/16 19:34:04;;;;;;;2.40;2.40;;;6.20;99.90;7.40;97992.00;;;;4972576;28;20220;-68
2023/01/16 19:36:40;;;;;;;2.47;2.47;;;6.00;99.90;7.10;97963.00;;;;4978012;28;20209;-68
2023/01/16 19:39:26;;;;;;;9.83;2.50;;;5.70;99.90;6.70;97965.00;;;;4967144;28;20260;-68
2023/01/16 19:49:10;;;;;;;1.90;1.90;;;5.60;99.90;7.70;97977.00;;;;4980812;28;20568;-68
2023/01/16 19:52:14;;;;;;;2.10;2.10;;;5.70;99.90;8.10;97986.00;;;;4954308;28;20270;-68
2023/01/16 19:54:41;;;;;;;2.40;2.40;;;6.00;99.90;8.60;98003.00;;;;4995913;28;20199;-68
2023/01/16 19:57:42;;;;;;;2.60;2.50;;;6.20;99.90;8.10;98011.00;;;;5051765;28;20205;-68
2023/01/16 20:00:36;;;;;;;2.70;2.60;;;6.20;99.90;8.50;98027.00;;;;5048000;28;20686;-68
2023/01/16 20:03:44;;;;;;;2.70;2.60;;;6.30;99.90;8.80;98027.00;;;;5044805;28;20235;-73
2023/01/16 20:06:31;;;;;;;2.30;2.30;;;6.40;99.90;8.60;98038.00;;;;5033857;28;20192;-68
2023/01/16 20:08:57;;;;;;;2.30;2.30;;;6.30;99.90;8.30;97997.00;;;;5028686;28;20180;-68
2023/01/16 20:14:15;;;;;;;3.00;2.90;;;6.10;99.90;8.00;98053.00;;;;5048182;28;20199;-68
2023/01/16 20:16:41;;;;;;;2.70;2.60;;;6.00;99.90;8.30;98037.00;;;;5050206;28;20182;-68
2023/01/16 20:19:14;;;;;;;2.97;2.87;;;6.00;99.90;8.30;98083.00;;;;5050737;28;20182;-68
2023/01/16 20:21:41;;;;;;;3.07;2.97;;;6.10;99.90;8.20;98079.00;;;;5033792;28;20220;-68
2023/01/16 20:24:08;;;;;;;3.53;3.43;;;6.00;99.90;8.60;98075.00;;;;5049946;28;20194;-68
2023/01/16 20:26:35;;;;;;;3.73;3.63;;;6.10;99.90;8.60;98094.00;;;;5050401;28;20214;-68
2023/01/16 20:29:02;;;;;;;3.60;3.50;;;6.20;99.90;8.70;98089.00;;;;5062131;28;20266;-68
2023/01/16 20:31:31;;;;;;;3.10;3.00;;;6.20;99.90;8.30;98099.00;;;;5034900;28;20204;-68
2023/01/16 20:34:06;;;;;;;8.03;3.50;;;6.20;99.90;8.00;98094.00;;;;5034887;28;20195;-68
2023/01/16 20:36:32;;;;;;;2.70;2.60;;;6.00;99.90;8.00;98081.00;;;;5043285;28;20187;-68
2023/01/16 20:38:58;;;;;;;7.43;6.93;;;6.00;99.90;8.00;98099.00;;;;5049848;28;20519;-68
2023/01/16 20:47:38;;;;;;;3.50;3.40;;;6.00;99.90;7.70;98116.00;;;;5047714;28;20268;-68
2023/01/16 20:50:19;;;;;;;6.10;3.13;;;5.90;99.90;7.50;98121.00;;;;5032240;28;20284;-68
2023/01/16 20:53:22;;;;;;;2.40;2.40;;;5.80;99.90;7.80;98131.00;;;;5029485;28;20726;-68
2023/01/16 20:56:07;;;;;;;3.10;3.00;;;5.80;99.90;7.70;98073.00;;;;5043821;28;20663;-68
2023/01/16 20:58:55;;;;;;;3.50;3.40;;;5.60;99.90;7.90;98156.00;;;;5051145;28;20213;-68
2023/01/16 21:02:00;;;;;;;3.90;3.80;;;5.60;99.90;8.50;98156.00;;;;5050167;28;20254;-68
2023/01/16 21:04:52;;;;;;;3.70;3.60;;;5.80;99.90;7.80;98170.00;;;;5042195;28;20174;-67
2023/01/16 21:07:31;;;;;;;3.40;3.30;;;5.80;99.90;7.60;98154.00;;;;5049229;28;20242;-68
2023/01/16 21:09:57;;;;;;;3.20;3.10;;;5.60;99.90;8.20;98181.00;;;;5042097;28;20182;-68
2023/01/16 21:22:24;;;;;;;3.10;3.00;;;5.10;99.90;6.90;98185.00;;;;5043085;28;20202;-68
2023/01/16 21:24:56;;;;;;;3.00;2.90;;;5.10;99.90;6.80;98166.00;;;;5044457;28;20178;-68
2023/01/16 21:27:29;;;;;;;3.30;3.17;;;5.00;99.90;6.80;98196.00;;;;5049301;28;20187;-68
2023/01/16 21:29:58;;;;;;;3.13;3.03;;;4.90;99.90;6.70;98193.00;;;;5046086;28;20184;-68
2023/01/16 21:32:25;;;;;;;3.60;3.50;;;4.90;99.90;7.10;98198.00;;;;5048505;28;20207;-68
2023/01/16 21:34:54;;;;;;;3.80;3.70;;;5.00;99.90;6.80;98211.00;;;;5049238;28;20187;-68
2023/01/16 21:37:26;;;;;;;3.93;3.83;;;4.90;99.90;7.80;98211.00;;;;5033453;28;20543;-68
2023/01/16 21:39:56;;;;;;;4.50;4.40;;;5.10;99.90;7.90;98219.00;;;;5040305;28;20261;-69
2023/01/16 21:48:09;;;;;;;4.90;4.80;;;5.20;99.90;8.20;98239.00;;;;5032692;28;20249;-69
2023/01/16 21:50:44;;;;;;;4.87;4.67;;;5.40;99.90;7.80;98235.00;;;;5048551;28;20194;-68
2023/01/16 21:53:16;;;;;;;5.33;5.23;;;5.40;99.90;8.30;98248.00;;;;5046750;28;20226;-69
2023/01/16 21:55:44;;;;;;;4.90;4.80;;;5.60;99.90;7.30;98255.00;;;;5032474;28;20192;-69
2023/01/16 21:58:10;;;;;;;5.67;5.47;;;5.40;99.90;8.00;98201.00;;;;5049230;28;20657;-68
2023/01/16 22:00:37;;;;;;;4.20;4.10;;;5.40;99.90;8.20;98270.00;;;;5048593;28;20222;-68
2023/01/16 22:03:05;;;;;;;4.80;4.70;;;5.60;99.90;8.00;98278.00;;;;5048610;28;20205;-68
2023/01/16 22:05:34;;;;;;;4.90;4.80;;;5.60;99.90;7.30;98258.00;;;;5047211;28;20644;-68
2023/01/16 22:08:00;;;;;;;4.93;4.83;;;5.30;99.90;7.90;98257.00;;;;5048286;28;20174;-68
2023/01/16 22:10:26;;;;;;;5.30;5.20;;;5.20;99.90;8.20;98247.00;;;;5032079;28;20186;-68
2023/01/16 22:18:36;;;;;;;4.70;4.60;;;5.40;99.90;7.30;98262.00;;;;5021342;28;20187;-68
2023/01/16 22:34:11;;;;;;;2.40;2.40;;;3.90;99.90;6.40;98253.00;;;;5126942;27;1388138;-68
2023/01/16 22:37:29;;;;;;;3.30;3.20;;;4.30;99.90;7.30;98246.00;;;;5136223;27;20197;-69
2023/01/16 22:40:33;;;;;;;3.80;3.70;;;4.80;99.90;7.70;98265.00;;;;5124828;27;20254;-69
2023/01/16 22:46:58;;;;;;;4.30;4.20;;;5.40;99.90;8.60;98284.00;;;;5144886;27;20192;-69
2023/01/16 22:50:19;;;;;;;5.00;4.90;;;5.60;99.90;8.70;98307.00;;;;5151267;27;20535;-69
2023/01/16 22:53:23;;;;;;;5.10;4.90;;;5.80;99.90;8.10;98317.00;;;;5129174;27;20207;-69